sensor_id;sensor_type;location;lat;lon;timestamp;P1;durP1;ratioP1;P2;durP2;ratioP2
3081;SDS011;1551;51.046;7.010;2024-01-16T00:00:44;11.00;;;6.00;;
3081;SDS011;1551;51.046;7.010;2024-01-16T00:03:32;6.63;;;5.63;;
3081;SDS011;1551;51.046;7.010;2024-01-16T00:06:21;9.50;;;6.40;;
3081;SDS011;1551;51.046;7.010;2024-01-16T00:09:10;6.00;;;5.40;;
3081;SDS011;1551;51.046;7.010;2024-01-16T00:11:59;10.27;;;6.18;;
3081;SDS011;1551;51.046;7.010;2024-01-16T00:14:49;8.63;;;6.72;;
3081;SDS011;1551;51.046;7.010;2024-01-16T00:17:38;7.13;;;5.65;;
3081;SDS011;1551;51.046;7.010;2024-01-16T00:20:27;10.32;;;5.68;;
3081;SDS011;1551;51.046;7.010;2024-01-16T00:23:16;6.22;;;5.47;;
3081;SDS011;1551;51.046;7.010;2024-01-16T00:26:05;8.68;;;5.95;;
3081;SDS011;1551;51.046;7.010;2024-01-16T00:28:54;12.60;;;6.63;;
3081;SDS011;1551;51.046;7.010;2024-01-16T00:31:43;9.90;;;6.68;;
3081;SDS011;1551;51.046;7.010;2024-01-16T00:34:32;10.60;;;6.60;;
3081;SDS011;1551;51.046;7.010;2024-01-16T00:37:21;8.43;;;5.80;;
3081;SDS011;1551;51.046;7.010;2024-01-16T00:40:10;12.38;;;6.68;;
3081;SDS011;1551;51.046;7.010;2024-01-16T00:42:59;10.20;;;6.53;;
3081;SDS011;1551;51.046;7.010;2024-01-16T00:45:48;10.47;;;6.67;;
3081;SDS011;1551;51.046;7.010;2024-01-16T00:48:37;9.88;;;6.65;;
3081;SDS011;1551;51.046;7.010;2024-01-16T00:51:27;10.65;;;7.07;;
3081;SDS011;1551;51.046;7.010;2024-01-16T00:54:16;10.43;;;6.80;;
3081;SDS011;1551;51.046;7.010;2024-01-16T00:57:05;10.43;;;6.93;;
3081;SDS011;1551;51.046;7.010;2024-01-16T00:59:54;11.35;;;7.60;;
3081;SDS011;1551;51.046;7.010;2024-01-16T01:02:43;10.43;;;7.35;;
3081;SDS011;1551;51.046;7.010;2024-01-16T01:05:32;9.10;;;7.50;;
3081;SDS011;1551;51.046;7.010;2024-01-16T01:08:21;9.77;;;7.72;;
3081;SDS011;1551;51.046;7.010;2024-01-16T01:11:11;11.20;;;8.35;;
3081;SDS011;1551;51.046;7.010;2024-01-16T01:14:00;9.48;;;7.88;;
3081;SDS011;1551;51.046;7.010;2024-01-16T01:16:49;10.10;;;8.05;;
3081;SDS011;1551;51.046;7.010;2024-01-16T01:19:38;10.25;;;7.45;;
3081;SDS011;1551;51.046;7.010;2024-01-16T01:22:28;11.77;;;7.38;;
3081;SDS011;1551;51.046;7.010;2024-01-16T01:25:16;11.70;;;7.70;;
3081;SDS011;1551;51.046;7.010;2024-01-16T01:28:05;10.57;;;7.60;;
3081;SDS011;1551;51.046;7.010;2024-01-16T01:30:54;10.68;;;7.50;;
3081;SDS011;1551;51.046;7.010;2024-01-16T01:33:43;12.52;;;7.25;;
3081;SDS011;1551;51.046;7.010;2024-01-16T01:36:32;10.63;;;7.50;;
3081;SDS011;1551;51.046;7.010;2024-01-16T01:39:21;14.43;;;8.40;;
3081;SDS011;1551;51.046;7.010;2024-01-16T01:42:10;9.52;;;6.97;;
3081;SDS011;1551;51.046;7.010;2024-01-16T01:44:59;10.80;;;6.70;;
3081;SDS011;1551;51.046;7.010;2024-01-16T01:47:48;10.10;;;6.77;;
3081;SDS011;1551;51.046;7.010;2024-01-16T01:50:37;9.05;;;6.32;;
3081;SDS011;1551;51.046;7.010;2024-01-16T01:53:28;8.15;;;6.30;;
3081;SDS011;1551;51.046;7.010;2024-01-16T01:56:19;10.40;;;6.13;;
3081;SDS011;1551;51.046;7.010;2024-01-16T01:59:10;8.25;;;6.13;;
3081;SDS011;1551;51.046;7.010;2024-01-16T02:01:59;8.57;;;5.70;;
3081;SDS011;1551;51.046;7.010;2024-01-16T02:04:49;8.40;;;5.38;;
3081;SDS011;1551;51.046;7.010;2024-01-16T02:07:39;9.77;;;6.40;;
3081;SDS011;1551;51.046;7.010;2024-01-16T02:10:27;11.00;;;6.25;;
3081;SDS011;1551;51.046;7.010;2024-01-16T02:13:18;7.63;;;5.85;;
3081;SDS011;1551;51.046;7.010;2024-01-16T02:16:22;10.10;;;5.85;;
3081;SDS011;1551;51.046;7.010;2024-01-16T02:19:12;9.73;;;6.30;;
3081;SDS011;1551;51.046;7.010;2024-01-16T02:22:02;9.13;;;6.53;;
3081;SDS011;1551;51.046;7.010;2024-01-16T02:24:53;11.02;;;7.25;;
3081;SDS011;1551;51.046;7.010;2024-01-16T02:27:42;10.32;;;6.55;;
3081;SDS011;1551;51.046;7.010;2024-01-16T02:30:31;12.00;;;6.90;;
3081;SDS011;1551;51.046;7.010;2024-01-16T02:33:20;13.48;;;7.10;;
3081;SDS011;1551;51.046;7.010;2024-01-16T02:36:09;8.45;;;7.50;;
3081;SDS011;1551;51.046;7.010;2024-01-16T02:38:58;10.77;;;7.35;;
3081;SDS011;1551;51.046;7.010;2024-01-16T02:41:47;9.18;;;7.05;;
3081;SDS011;1551;51.046;7.010;2024-01-16T02:44:36;9.93;;;6.65;;
3081;SDS011;1551;51.046;7.010;2024-01-16T02:47:26;8.50;;;7.60;;
3081;SDS011;1551;51.046;7.010;2024-01-16T02:50:15;11.55;;;6.80;;
3081;SDS011;1551;51.046;7.010;2024-01-16T02:53:05;8.98;;;6.55;;
3081;SDS011;1551;51.046;7.010;2024-01-16T02:55:54;12.27;;;7.40;;
3081;SDS011;1551;51.046;7.010;2024-01-16T02:58:43;11.60;;;7.43;;
3081;SDS011;1551;51.046;7.010;2024-01-16T03:01:32;11.38;;;7.00;;
3081;SDS011;1551;51.046;7.010;2024-01-16T03:04:21;6.85;;;6.03;;
3081;SDS011;1551;51.046;7.010;2024-01-16T03:07:10;7.50;;;5.30;;
3081;SDS011;1551;51.046;7.010;2024-01-16T03:09:59;6.93;;;5.60;;
3081;SDS011;1551;51.046;7.010;2024-01-16T03:12:48;9.32;;;6.28;;
3081;SDS011;1551;51.046;7.010;2024-01-16T03:15:37;8.10;;;6.10;;
3081;SDS011;1551;51.046;7.010;2024-01-16T03:18:26;10.88;;;5.70;;
3081;SDS011;1551;51.046;7.010;2024-01-16T03:21:15;8.47;;;6.00;;
3081;SDS011;1551;51.046;7.010;2024-01-16T03:24:05;7.47;;;6.20;;
3081;SDS011;1551;51.046;7.010;2024-01-16T03:26:59;8.93;;;6.20;;
3081;SDS011;1551;51.046;7.010;2024-01-16T03:29:48;9.50;;;6.00;;
3081;SDS011;1551;51.046;7.010;2024-01-16T03:32:37;9.57;;;6.68;;
3081;SDS011;1551;51.046;7.010;2024-01-16T03:35:26;9.32;;;6.10;;
3081;SDS011;1551;51.046;7.010;2024-01-16T03:38:15;10.18;;;5.88;;
3081;SDS011;1551;51.046;7.010;2024-01-16T03:41:04;9.55;;;6.28;;
3081;SDS011;1551;51.046;7.010;2024-01-16T03:43:55;9.50;;;6.40;;
3081;SDS011;1551;51.046;7.010;2024-01-16T03:46:45;11.40;;;7.43;;
3081;SDS011;1551;51.046;7.010;2024-01-16T03:49:34;9.63;;;6.68;;
3081;SDS011;1551;51.046;7.010;2024-01-16T03:52:23;9.40;;;6.70;;
3081;SDS011;1551;51.046;7.010;2024-01-16T03:55:12;8.48;;;6.25;;
3081;SDS011;1551;51.046;7.010;2024-01-16T03:58:01;8.75;;;6.15;;
3081;SDS011;1551;51.046;7.010;2024-01-16T04:00:49;9.43;;;6.35;;
3081;SDS011;1551;51.046;7.010;2024-01-16T04:03:41;9.60;;;6.38;;
3081;SDS011;1551;51.046;7.010;2024-01-16T04:06:30;10.80;;;6.65;;
3081;SDS011;1551;51.046;7.010;2024-01-16T04:09:20;9.02;;;5.95;;
3081;SDS011;1551;51.046;7.010;2024-01-16T04:12:09;8.07;;;6.00;;
3081;SDS011;1551;51.046;7.010;2024-01-16T04:14:58;10.63;;;6.20;;
3081;SDS011;1551;51.046;7.010;2024-01-16T04:17:47;11.20;;;6.75;;
3081;SDS011;1551;51.046;7.010;2024-01-16T04:20:36;7.45;;;6.35;;
3081;SDS011;1551;51.046;7.010;2024-01-16T04:23:26;10.90;;;6.60;;
3081;SDS011;1551;51.046;7.010;2024-01-16T04:26:15;8.63;;;5.80;;
3081;SDS011;1551;51.046;7.010;2024-01-16T04:29:03;9.27;;;6.78;;
3081;SDS011;1551;51.046;7.010;2024-01-16T04:31:53;8.90;;;6.80;;
3081;SDS011;1551;51.046;7.010;2024-01-16T04:34:42;10.70;;;7.13;;
3081;SDS011;1551;51.046;7.010;2024-01-16T04:37:31;8.55;;;5.88;;
3081;SDS011;1551;51.046;7.010;2024-01-16T04:40:20;7.70;;;6.90;;
3081;SDS011;1551;51.046;7.010;2024-01-16T04:43:09;9.93;;;7.07;;
3081;SDS011;1551;51.046;7.010;2024-01-16T04:45:57;9.68;;;7.43;;
3081;SDS011;1551;51.046;7.010;2024-01-16T04:48:46;9.43;;;6.05;;
3081;SDS011;1551;51.046;7.010;2024-01-16T04:51:35;11.48;;;6.50;;
3081;SDS011;1551;51.046;7.010;2024-01-16T04:54:24;9.10;;;6.38;;
3081;SDS011;1551;51.046;7.010;2024-01-16T04:57:13;8.45;;;5.78;;
3081;SDS011;1551;51.046;7.010;2024-01-16T05:00:03;8.90;;;5.10;;
3081;SDS011;1551;51.046;7.010;2024-01-16T05:02:55;10.83;;;6.20;;
3081;SDS011;1551;51.046;7.010;2024-01-16T05:05:44;12.90;;;6.70;;
3081;SDS011;1551;51.046;7.010;2024-01-16T05:08:33;9.63;;;5.07;;
3081;SDS011;1551;51.046;7.010;2024-01-16T05:11:22;11.00;;;6.45;;
3081;SDS011;1551;51.046;7.010;2024-01-16T05:14:11;8.82;;;5.88;;
3081;SDS011;1551;51.046;7.010;2024-01-16T05:17:00;11.95;;;5.57;;
3081;SDS011;1551;51.046;7.010;2024-01-16T05:19:49;9.40;;;6.15;;
3081;SDS011;1551;51.046;7.010;2024-01-16T05:22:38;10.30;;;6.10;;
3081;SDS011;1551;51.046;7.010;2024-01-16T05:25:27;8.80;;;5.80;;
3081;SDS011;1551;51.046;7.010;2024-01-16T05:28:16;11.75;;;6.18;;
3081;SDS011;1551;51.046;7.010;2024-01-16T05:31:07;12.00;;;7.00;;
3081;SDS011;1551;51.046;7.010;2024-01-16T05:33:56;12.02;;;6.80;;
3081;SDS011;1551;51.046;7.010;2024-01-16T05:36:47;10.77;;;7.27;;
3081;SDS011;1551;51.046;7.010;2024-01-16T05:39:36;11.05;;;6.97;;
3081;SDS011;1551;51.046;7.010;2024-01-16T05:42:25;10.30;;;7.50;;
3081;SDS011;1551;51.046;7.010;2024-01-16T05:45:15;11.07;;;7.60;;
3081;SDS011;1551;51.046;7.010;2024-01-16T05:48:04;10.50;;;7.00;;
3081;SDS011;1551;51.046;7.010;2024-01-16T05:50:55;13.13;;;7.45;;
3081;SDS011;1551;51.046;7.010;2024-01-16T05:53:44;14.32;;;6.97;;
3081;SDS011;1551;51.046;7.010;2024-01-16T05:56:34;13.73;;;7.20;;
3081;SDS011;1551;51.046;7.010;2024-01-16T05:59:23;11.48;;;6.60;;
3081;SDS011;1551;51.046;7.010;2024-01-16T06:02:13;11.30;;;5.80;;
3081;SDS011;1551;51.046;7.010;2024-01-16T06:05:03;12.48;;;6.60;;
3081;SDS011;1551;51.046;7.010;2024-01-16T06:07:52;9.65;;;5.70;;
3081;SDS011;1551;51.046;7.010;2024-01-16T06:10:41;13.50;;;5.70;;
3081;SDS011;1551;51.046;7.010;2024-01-16T06:13:30;9.20;;;5.85;;
3081;SDS011;1551;51.046;7.010;2024-01-16T06:16:20;8.77;;;5.72;;
3081;SDS011;1551;51.046;7.010;2024-01-16T06:19:09;10.77;;;4.82;;
3081;SDS011;1551;51.046;7.010;2024-01-16T06:21:58;7.50;;;4.50;;
3081;SDS011;1551;51.046;7.010;2024-01-16T06:24:47;7.13;;;5.00;;
3081;SDS011;1551;51.046;7.010;2024-01-16T06:27:36;8.50;;;4.85;;
3081;SDS011;1551;51.046;7.010;2024-01-16T06:30:25;10.90;;;4.70;;
3081;SDS011;1551;51.046;7.010;2024-01-16T06:33:14;8.77;;;4.82;;
3081;SDS011;1551;51.046;7.010;2024-01-16T06:36:03;7.88;;;4.40;;
3081;SDS011;1551;51.046;7.010;2024-01-16T06:38:53;10.80;;;4.70;;
3081;SDS011;1551;51.046;7.010;2024-01-16T06:41:42;7.68;;;4.35;;
3081;SDS011;1551;51.046;7.010;2024-01-16T06:44:31;8.95;;;4.18;;
3081;SDS011;1551;51.046;7.010;2024-01-16T06:47:20;11.38;;;4.30;;
3081;SDS011;1551;51.046;7.010;2024-01-16T06:50:09;7.10;;;3.85;;
3081;SDS011;1551;51.046;7.010;2024-01-16T06:52:58;9.18;;;4.25;;
3081;SDS011;1551;51.046;7.010;2024-01-16T06:55:48;6.72;;;4.03;;
3081;SDS011;1551;51.046;7.010;2024-01-16T06:58:37;10.70;;;3.85;;
3081;SDS011;1551;51.046;7.010;2024-01-16T07:01:26;7.70;;;3.37;;
3081;SDS011;1551;51.046;7.010;2024-01-16T07:04:15;5.68;;;3.30;;
3081;SDS011;1551;51.046;7.010;2024-01-16T07:07:04;7.88;;;3.47;;
3081;SDS011;1551;51.046;7.010;2024-01-16T07:09:53;10.10;;;3.30;;
3081;SDS011;1551;51.046;7.010;2024-01-16T07:12:42;7.70;;;3.70;;
3081;SDS011;1551;51.046;7.010;2024-01-16T07:15:31;7.65;;;3.67;;
3081;SDS011;1551;51.046;7.010;2024-01-16T07:18:20;8.10;;;3.85;;
3081;SDS011;1551;51.046;7.010;2024-01-16T07:21:16;9.05;;;3.70;;
3081;SDS011;1551;51.046;7.010;2024-01-16T07:24:06;7.63;;;3.60;;
3081;SDS011;1551;51.046;7.010;2024-01-16T07:26:55;12.02;;;3.97;;
3081;SDS011;1551;51.046;7.010;2024-01-16T07:29:44;11.63;;;4.82;;
3081;SDS011;1551;51.046;7.010;2024-01-16T07:32:34;10.27;;;4.57;;
3081;SDS011;1551;51.046;7.010;2024-01-16T07:35:23;7.95;;;4.60;;
3081;SDS011;1551;51.046;7.010;2024-01-16T07:38:12;11.05;;;4.28;;
3081;SDS011;1551;51.046;7.010;2024-01-16T07:41:01;14.88;;;4.32;;
3081;SDS011;1551;51.046;7.010;2024-01-16T07:43:50;11.82;;;4.63;;
3081;SDS011;1551;51.046;7.010;2024-01-16T07:46:39;8.15;;;4.00;;
3081;SDS011;1551;51.046;7.010;2024-01-16T07:49:28;10.68;;;5.47;;
3081;SDS011;1551;51.046;7.010;2024-01-16T07:52:17;9.70;;;3.85;;
3081;SDS011;1551;51.046;7.010;2024-01-16T07:55:06;12.70;;;4.63;;
3081;SDS011;1551;51.046;7.010;2024-01-16T07:57:55;9.73;;;4.35;;
3081;SDS011;1551;51.046;7.010;2024-01-16T08:00:44;8.10;;;4.00;;
3081;SDS011;1551;51.046;7.010;2024-01-16T08:03:34;10.05;;;3.90;;
3081;SDS011;1551;51.046;7.010;2024-01-16T08:06:23;9.27;;;4.13;;
3081;SDS011;1551;51.046;7.010;2024-01-16T08:09:12;8.95;;;3.78;;
3081;SDS011;1551;51.046;7.010;2024-01-16T08:12:03;7.55;;;3.58;;
3081;SDS011;1551;51.046;7.010;2024-01-16T08:14:52;7.13;;;3.72;;
3081;SDS011;1551;51.046;7.010;2024-01-16T08:17:41;9.20;;;4.38;;
3081;SDS011;1551;51.046;7.010;2024-01-16T08:20:30;6.50;;;3.60;;
3081;SDS011;1551;51.046;7.010;2024-01-16T08:23:19;6.63;;;4.20;;
3081;SDS011;1551;51.046;7.010;2024-01-16T08:26:10;7.63;;;3.20;;
3081;SDS011;1551;51.046;7.010;2024-01-16T08:28:59;9.52;;;4.45;;
3081;SDS011;1551;51.046;7.010;2024-01-16T08:31:47;5.40;;;3.10;;
3081;SDS011;1551;51.046;7.010;2024-01-16T08:34:36;9.05;;;3.58;;
3081;SDS011;1551;51.046;7.010;2024-01-16T08:37:26;9.90;;;3.40;;
3081;SDS011;1551;51.046;7.010;2024-01-16T08:40:15;8.45;;;3.60;;
3081;SDS011;1551;51.046;7.010;2024-01-16T08:43:04;7.15;;;3.50;;
3081;SDS011;1551;51.046;7.010;2024-01-16T08:45:53;7.05;;;3.40;;
3081;SDS011;1551;51.046;7.010;2024-01-16T08:48:42;8.05;;;4.50;;
3081;SDS011;1551;51.046;7.010;2024-01-16T08:51:31;12.25;;;4.25;;
3081;SDS011;1551;51.046;7.010;2024-01-16T08:54:20;11.15;;;3.58;;
3081;SDS011;1551;51.046;7.010;2024-01-16T08:57:11;5.65;;;3.33;;
3081;SDS011;1551;51.046;7.010;2024-01-16T09:00:02;7.22;;;4.47;;
3081;SDS011;1551;51.046;7.010;2024-01-16T09:02:54;7.33;;;3.13;;
3081;SDS011;1551;51.046;7.010;2024-01-16T09:05:43;5.03;;;3.03;;
3081;SDS011;1551;51.046;7.010;2024-01-16T09:08:32;9.15;;;3.50;;
3081;SDS011;1551;51.046;7.010;2024-01-16T09:11:21;7.97;;;3.65;;
3081;SDS011;1551;51.046;7.010;2024-01-16T09:14:10;5.80;;;3.17;;
3081;SDS011;1551;51.046;7.010;2024-01-16T09:16:59;7.22;;;3.30;;
3081;SDS011;1551;51.046;7.010;2024-01-16T09:19:48;8.80;;;3.05;;
3081;SDS011;1551;51.046;7.010;2024-01-16T09:22:37;7.85;;;3.13;;
3081;SDS011;1551;51.046;7.010;2024-01-16T09:25:26;10.00;;;3.53;;
3081;SDS011;1551;51.046;7.010;2024-01-16T09:28:16;6.00;;;3.00;;
3081;SDS011;1551;51.046;7.010;2024-01-16T09:31:05;8.47;;;3.07;;
3081;SDS011;1551;51.046;7.010;2024-01-16T09:33:54;6.90;;;3.87;;
3081;SDS011;1551;51.046;7.010;2024-01-16T09:36:43;10.90;;;3.50;;
3081;SDS011;1551;51.046;7.010;2024-01-16T09:39:32;13.07;;;3.83;;
3081;SDS011;1551;51.046;7.010;2024-01-16T09:42:23;7.28;;;2.90;;
3081;SDS011;1551;51.046;7.010;2024-01-16T09:45:13;8.50;;;3.03;;
3081;SDS011;1551;51.046;7.010;2024-01-16T09:48:09;7.90;;;3.37;;
3081;SDS011;1551;51.046;7.010;2024-01-16T09:50:59;8.27;;;4.55;;
3081;SDS011;1551;51.046;7.010;2024-01-16T09:53:48;9.47;;;3.50;;
3081;SDS011;1551;51.046;7.010;2024-01-16T09:56:39;6.53;;;3.40;;
3081;SDS011;1551;51.046;7.010;2024-01-16T09:59:31;7.70;;;3.70;;
3081;SDS011;1551;51.046;7.010;2024-01-16T10:02:21;8.55;;;3.35;;
3081;SDS011;1551;51.046;7.010;2024-01-16T10:05:11;9.18;;;3.35;;
3081;SDS011;1551;51.046;7.010;2024-01-16T10:08:01;6.63;;;3.10;;
3081;SDS011;1551;51.046;7.010;2024-01-16T10:10:50;8.70;;;3.38;;
3081;SDS011;1551;51.046;7.010;2024-01-16T10:13:38;7.60;;;3.10;;
3081;SDS011;1551;51.046;7.010;2024-01-16T10:19:54;11.70;;;3.55;;
3081;SDS011;1551;51.046;7.010;2024-01-16T10:22:52;9.43;;;3.90;;
3081;SDS011;1551;51.046;7.010;2024-01-16T10:25:41;7.78;;;3.00;;
3081;SDS011;1551;51.046;7.010;2024-01-16T10:28:30;11.40;;;3.50;;
3081;SDS011;1551;51.046;7.010;2024-01-16T10:31:20;5.15;;;3.25;;
3081;SDS011;1551;51.046;7.010;2024-01-16T10:34:19;6.47;;;3.40;;
3081;SDS011;1551;51.046;7.010;2024-01-16T10:37:12;9.73;;;3.42;;
3081;SDS011;1551;51.046;7.010;2024-01-16T10:40:01;8.37;;;3.37;;
3081;SDS011;1551;51.046;7.010;2024-01-16T10:42:57;6.80;;;3.45;;
3081;SDS011;1551;51.046;7.010;2024-01-16T10:45:46;6.00;;;3.10;;
3081;SDS011;1551;51.046;7.010;2024-01-16T10:48:35;7.88;;;2.88;;
3081;SDS011;1551;51.046;7.010;2024-01-16T10:51:24;7.60;;;3.40;;
3081;SDS011;1551;51.046;7.010;2024-01-16T10:54:15;7.35;;;3.53;;
3081;SDS011;1551;51.046;7.010;2024-01-16T10:57:04;5.90;;;3.75;;
3081;SDS011;1551;51.046;7.010;2024-01-16T11:00:04;7.90;;;3.92;;
3081;SDS011;1551;51.046;7.010;2024-01-16T11:06:25;4.88;;;2.97;;
3081;SDS011;1551;51.046;7.010;2024-01-16T11:09:16;7.35;;;2.97;;
3081;SDS011;1551;51.046;7.010;2024-01-16T11:12:05;8.00;;;3.20;;
3081;SDS011;1551;51.046;7.010;2024-01-16T11:14:55;6.57;;;2.90;;
3081;SDS011;1551;51.046;7.010;2024-01-16T11:17:48;7.40;;;3.10;;
3081;SDS011;1551;51.046;7.010;2024-01-16T11:20:38;7.18;;;2.85;;
3081;SDS011;1551;51.046;7.010;2024-01-16T11:23:32;6.95;;;3.08;;
3081;SDS011;1551;51.046;7.010;2024-01-16T11:35:32;7.15;;;3.13;;
3081;SDS011;1551;51.046;7.010;2024-01-16T11:38:23;7.75;;;3.25;;
3081;SDS011;1551;51.046;7.010;2024-01-16T11:41:38;9.70;;;3.85;;
3081;SDS011;1551;51.046;7.010;2024-01-16T11:44:44;8.02;;;3.08;;
3081;SDS011;1551;51.046;7.010;2024-01-16T11:47:42;7.00;;;3.20;;
3081;SDS011;1551;51.046;7.010;2024-01-16T11:50:31;8.75;;;4.40;;
3081;SDS011;1551;51.046;7.010;2024-01-16T11:53:33;8.63;;;3.30;;
3081;SDS011;1551;51.046;7.010;2024-01-16T11:56:31;9.98;;;3.40;;
3081;SDS011;1551;51.046;7.010;2024-01-16T11:59:50;7.90;;;3.30;;
3081;SDS011;1551;51.046;7.010;2024-01-16T12:02:53;6.22;;;3.17;;
3081;SDS011;1551;51.046;7.010;2024-01-16T12:05:54;9.45;;;3.78;;
3081;SDS011;1551;51.046;7.010;2024-01-16T12:08:43;9.70;;;3.30;;
3081;SDS011;1551;51.046;7.010;2024-01-16T12:11:32;9.13;;;3.33;;
3081;SDS011;1551;51.046;7.010;2024-01-16T12:14:21;8.52;;;3.63;;
3081;SDS011;1551;51.046;7.010;2024-01-16T12:17:11;9.57;;;3.22;;
3081;SDS011;1551;51.046;7.010;2024-01-16T12:20:00;6.53;;;3.60;;
3081;SDS011;1551;51.046;7.010;2024-01-16T12:23:05;6.40;;;3.20;;
3081;SDS011;1551;51.046;7.010;2024-01-16T12:25:55;8.35;;;3.33;;
3081;SDS011;1551;51.046;7.010;2024-01-16T12:28:54;7.07;;;3.45;;
3081;SDS011;1551;51.046;7.010;2024-01-16T12:31:43;8.63;;;3.72;;
3081;SDS011;1551;51.046;7.010;2024-01-16T12:34:33;4.60;;;3.20;;
3081;SDS011;1551;51.046;7.010;2024-01-16T12:37:23;8.30;;;3.92;;
3081;SDS011;1551;51.046;7.010;2024-01-16T12:40:12;8.30;;;3.40;;
3081;SDS011;1551;51.046;7.010;2024-01-16T12:43:03;7.30;;;3.30;;
3081;SDS011;1551;51.046;7.010;2024-01-16T12:45:56;9.85;;;3.58;;
3081;SDS011;1551;51.046;7.010;2024-01-16T12:48:46;6.75;;;3.35;;
3081;SDS011;1551;51.046;7.010;2024-01-16T12:51:38;7.85;;;3.30;;
3081;SDS011;1551;51.046;7.010;2024-01-16T12:54:26;5.28;;;2.80;;
3081;SDS011;1551;51.046;7.010;2024-01-16T12:57:19;11.98;;;4.05;;
3081;SDS011;1551;51.046;7.010;2024-01-16T13:00:42;9.40;;;3.28;;
3081;SDS011;1551;51.046;7.010;2024-01-16T13:03:25;7.37;;;3.50;;
3081;SDS011;1551;51.046;7.010;2024-01-16T13:06:18;6.47;;;3.00;;
3081;SDS011;1551;51.046;7.010;2024-01-16T13:09:11;7.90;;;3.30;;
3081;SDS011;1551;51.046;7.010;2024-01-16T13:12:06;7.60;;;3.42;;
3081;SDS011;1551;51.046;7.010;2024-01-16T13:14:55;7.00;;;3.70;;
3081;SDS011;1551;51.046;7.010;2024-01-16T13:17:44;7.80;;;4.10;;
3081;SDS011;1551;51.046;7.010;2024-01-16T13:20:33;7.97;;;3.30;;
3081;SDS011;1551;51.046;7.010;2024-01-16T13:23:23;6.57;;;3.30;;
3081;SDS011;1551;51.046;7.010;2024-01-16T13:26:16;8.20;;;3.80;;
3081;SDS011;1551;51.046;7.010;2024-01-16T13:29:05;6.75;;;3.40;;
3081;SDS011;1551;51.046;7.010;2024-01-16T13:31:54;9.77;;;3.78;;
3081;SDS011;1551;51.046;7.010;2024-01-16T13:34:44;5.80;;;3.10;;
3081;SDS011;1551;51.046;7.010;2024-01-16T13:37:37;4.65;;;2.95;;
3081;SDS011;1551;51.046;7.010;2024-01-16T13:40:26;6.50;;;3.10;;
3081;SDS011;1551;51.046;7.010;2024-01-16T13:43:15;10.18;;;3.80;;
3081;SDS011;1551;51.046;7.010;2024-01-16T13:46:04;9.18;;;3.70;;
3081;SDS011;1551;51.046;7.010;2024-01-16T13:48:53;6.32;;;3.42;;
3081;SDS011;1551;51.046;7.010;2024-01-16T13:51:43;6.75;;;3.65;;
3081;SDS011;1551;51.046;7.010;2024-01-16T13:54:35;7.65;;;3.42;;
3081;SDS011;1551;51.046;7.010;2024-01-16T13:57:25;7.15;;;3.80;;
3081;SDS011;1551;51.046;7.010;2024-01-16T14:00:15;6.40;;;3.60;;
3081;SDS011;1551;51.046;7.010;2024-01-16T14:03:04;7.30;;;3.53;;
3081;SDS011;1551;51.046;7.010;2024-01-16T14:05:55;6.35;;;3.72;;
3081;SDS011;1551;51.046;7.010;2024-01-16T14:08:44;8.35;;;4.03;;
3081;SDS011;1551;51.046;7.010;2024-01-16T14:11:33;6.53;;;3.90;;
3081;SDS011;1551;51.046;7.010;2024-01-16T14:14:22;5.47;;;3.55;;
3081;SDS011;1551;51.046;7.010;2024-01-16T14:17:11;10.77;;;4.32;;
3081;SDS011;1551;51.046;7.010;2024-01-16T14:20:00;6.87;;;3.87;;
3081;SDS011;1551;51.046;7.010;2024-01-16T14:22:55;6.68;;;4.10;;
3081;SDS011;1551;51.046;7.010;2024-01-16T14:25:45;8.02;;;4.20;;
3081;SDS011;1551;51.046;7.010;2024-01-16T14:28:34;8.50;;;3.80;;
3081;SDS011;1551;51.046;7.010;2024-01-16T14:31:23;9.70;;;4.10;;
3081;SDS011;1551;51.046;7.010;2024-01-16T14:34:12;6.53;;;3.40;;
3081;SDS011;1551;51.046;7.010;2024-01-16T14:37:02;8.23;;;4.22;;
3081;SDS011;1551;51.046;7.010;2024-01-16T14:39:51;7.03;;;4.15;;
3081;SDS011;1551;51.046;7.010;2024-01-16T14:42:40;7.50;;;3.45;;
3081;SDS011;1551;51.046;7.010;2024-01-16T14:45:30;8.38;;;4.45;;
3081;SDS011;1551;51.046;7.010;2024-01-16T14:48:20;7.20;;;4.03;;
3081;SDS011;1551;51.046;7.010;2024-01-16T14:51:10;7.70;;;3.85;;
3081;SDS011;1551;51.046;7.010;2024-01-16T14:54:01;9.25;;;4.40;;
3081;SDS011;1551;51.046;7.010;2024-01-16T14:56:50;5.97;;;3.90;;
3081;SDS011;1551;51.046;7.010;2024-01-16T14:59:40;6.38;;;4.00;;
3081;SDS011;1551;51.046;7.010;2024-01-16T15:02:29;7.72;;;4.25;;
3081;SDS011;1551;51.046;7.010;2024-01-16T15:05:18;7.38;;;3.80;;
3081;SDS011;1551;51.046;7.010;2024-01-16T15:08:08;7.88;;;4.22;;
3081;SDS011;1551;51.046;7.010;2024-01-16T15:10:57;6.38;;;3.78;;
3081;SDS011;1551;51.046;7.010;2024-01-16T15:13:48;7.45;;;4.40;;
3081;SDS011;1551;51.046;7.010;2024-01-16T15:16:37;5.63;;;3.60;;
3081;SDS011;1551;51.046;7.010;2024-01-16T15:19:27;6.82;;;3.70;;
3081;SDS011;1551;51.046;7.010;2024-01-16T15:22:16;5.95;;;4.00;;
3081;SDS011;1551;51.046;7.010;2024-01-16T15:25:05;8.50;;;4.00;;
3081;SDS011;1551;51.046;7.010;2024-01-16T15:27:55;9.45;;;4.15;;
3081;SDS011;1551;51.046;7.010;2024-01-16T15:30:43;8.90;;;3.70;;
3081;SDS011;1551;51.046;7.010;2024-01-16T15:33:34;6.82;;;4.00;;
3081;SDS011;1551;51.046;7.010;2024-01-16T15:36:24;8.60;;;4.00;;
3081;SDS011;1551;51.046;7.010;2024-01-16T15:39:14;8.63;;;4.00;;
3081;SDS011;1551;51.046;7.010;2024-01-16T15:42:04;7.95;;;4.30;;
3081;SDS011;1551;51.046;7.010;2024-01-16T15:44:53;10.20;;;4.13;;
3081;SDS011;1551;51.046;7.010;2024-01-16T15:47:43;10.98;;;4.68;;
3081;SDS011;1551;51.046;7.010;2024-01-16T15:50:32;8.60;;;4.95;;
3081;SDS011;1551;51.046;7.010;2024-01-16T15:53:21;13.70;;;6.45;;
3081;SDS011;1551;51.046;7.010;2024-01-16T15:56:10;9.40;;;5.25;;
3081;SDS011;1551;51.046;7.010;2024-01-16T15:58:59;12.13;;;5.70;;
3081;SDS011;1551;51.046;7.010;2024-01-16T16:01:48;10.65;;;5.55;;
3081;SDS011;1551;51.046;7.010;2024-01-16T16:04:39;7.05;;;4.60;;
3081;SDS011;1551;51.046;7.010;2024-01-16T16:07:29;6.95;;;4.45;;
3081;SDS011;1551;51.046;7.010;2024-01-16T16:10:18;7.60;;;4.97;;
3081;SDS011;1551;51.046;7.010;2024-01-16T16:13:10;7.55;;;5.40;;
3081;SDS011;1551;51.046;7.010;2024-01-16T16:15:59;7.60;;;4.50;;
3081;SDS011;1551;51.046;7.010;2024-01-16T16:18:48;6.80;;;4.30;;
3081;SDS011;1551;51.046;7.010;2024-01-16T16:21:37;7.55;;;4.90;;
3081;SDS011;1551;51.046;7.010;2024-01-16T16:24:27;8.05;;;5.47;;
3081;SDS011;1551;51.046;7.010;2024-01-16T16:27:23;8.88;;;4.50;;
3081;SDS011;1551;51.046;7.010;2024-01-16T16:30:13;10.35;;;5.50;;
3081;SDS011;1551;51.046;7.010;2024-01-16T16:33:03;8.20;;;5.50;;
3081;SDS011;1551;51.046;7.010;2024-01-16T16:35:52;7.25;;;5.20;;
3081;SDS011;1551;51.046;7.010;2024-01-16T16:38:42;13.55;;;6.15;;
3081;SDS011;1551;51.046;7.010;2024-01-16T16:41:31;7.65;;;4.70;;
3081;SDS011;1551;51.046;7.010;2024-01-16T16:44:21;10.17;;;4.37;;
3081;SDS011;1551;51.046;7.010;2024-01-16T16:47:10;8.18;;;4.72;;
3081;SDS011;1551;51.046;7.010;2024-01-16T16:50:00;6.88;;;4.93;;
3081;SDS011;1551;51.046;7.010;2024-01-16T16:52:49;8.63;;;4.80;;
3081;SDS011;1551;51.046;7.010;2024-01-16T16:55:38;9.50;;;5.70;;
3081;SDS011;1551;51.046;7.010;2024-01-16T16:58:27;10.15;;;5.70;;
3081;SDS011;1551;51.046;7.010;2024-01-16T17:01:16;8.40;;;5.28;;
3081;SDS011;1551;51.046;7.010;2024-01-16T17:04:06;12.10;;;5.22;;
3081;SDS011;1551;51.046;7.010;2024-01-16T17:06:55;11.55;;;6.57;;
3081;SDS011;1551;51.046;7.010;2024-01-16T17:09:45;9.35;;;5.55;;
3081;SDS011;1551;51.046;7.010;2024-01-16T17:12:34;7.65;;;4.80;;
3081;SDS011;1551;51.046;7.010;2024-01-16T17:15:23;9.10;;;5.20;;
3081;SDS011;1551;51.046;7.010;2024-01-16T17:18:13;6.88;;;5.35;;
3081;SDS011;1551;51.046;7.010;2024-01-16T17:21:03;11.73;;;6.32;;
3081;SDS011;1551;51.046;7.010;2024-01-16T17:23:53;9.40;;;6.00;;
3081;SDS011;1551;51.046;7.010;2024-01-16T17:26:42;8.60;;;6.35;;
3081;SDS011;1551;51.046;7.010;2024-01-16T17:29:33;11.87;;;5.10;;
3081;SDS011;1551;51.046;7.010;2024-01-16T17:32:22;9.20;;;5.10;;
3081;SDS011;1551;51.046;7.010;2024-01-16T17:35:11;10.83;;;4.80;;
3081;SDS011;1551;51.046;7.010;2024-01-16T17:38:02;11.57;;;5.03;;
3081;SDS011;1551;51.046;7.010;2024-01-16T17:40:52;8.23;;;5.30;;
3081;SDS011;1551;51.046;7.010;2024-01-16T17:43:41;11.85;;;5.18;;
3081;SDS011;1551;51.046;7.010;2024-01-16T17:46:31;13.48;;;7.95;;
3081;SDS011;1551;51.046;7.010;2024-01-16T17:49:20;12.68;;;9.10;;